AirNav   Air Wisconsin Up To $57,000 Bonus
 
 1685 users online  

WA61 Thompson Airport
Kingston, Washington, USA

GOING TO KINGSTON?


FAA INFORMATION EFFECTIVE 04 NOVEMBER 2021

Location

FAA Identifier: WA61
Lat/Long: 47-47-54.0000N 122-31-47.0000W
47-47.900000N 122-31.783333W
47.7983333,-122.5297222
(estimated)
Elevation: 50 ft. / 15 m (estimated)
From city: 2 miles W of KINGSTON, WA
Time zone: UTC -7 (UTC -8 during Standard Time)
Zip code: 98346

Airport Operations

Airport use: Private use. Permission required prior to landing
Activation date: 09/2004
Control tower: no
ARTCC: SEATTLE CENTER
FSS: SEATTLE FLIGHT SERVICE STATION
Attendance: UNATNDD
Segmented circle: no

Airport Communications

WX ASOS at PAE (12 nm NE): PHONE 425-355-6192
WX ASOS at BFI (19 nm SE): PHONE 206-658-6435
WX AWOS-3P at 0S9 (19 nm NW): 119.025 (360-379-1199)

Nearby radio navigation aids

VOR radial/distance  VOR name  Freq  Var
PAEr214/12.5PAINE VOR/DME110.6020E
SEAr319/23.5SEATTLE VORTAC116.8019E
CVVr145/27.9PENN COVE VOR/DME117.2019E

Airport Services

Runway Information

Runway 5/23

Dimensions: 2000 x 100 ft. / 610 x 30 m
Surface: turf
RUNWAY 5  RUNWAY 23
Traffic pattern: leftleft
Obstructions: 50 ft. trees, marked, 200 ft. from runway30 ft. trees, marked, 200 ft. from runway

Airport Ownership and Management from official FAA records

Ownership: Privately-owned
Owner: JAMES A. THOMPSON TRUST
4488 N.E. TWIN SPITS RD
HANSVILLE, WA 98340
Phone 360-638-0000
JO NELSON 4488 NE TWIN SPITS HANSVILLE WA 98340 360-638-0000.
Manager: JAMES A. THOMPSON TRUST
4488 N.E. TWIN SPITS RD
HANSVILLE, WA 98340
Phone 360-638-0000

Airport Operational Statistics

Aircraft based on the field: 1
Single engine airplanes: 1
    

Additional Remarks

FOR EMERG USE ONLY.
FOR CD CTC SEATTLE APCH AT 206-214-4794.

Instrument Procedures

There are no published instrument procedures at WA61.

Some nearby airports with instrument procedures:

KPAE - Snohomish County Airport (Paine Field) (12 nm NE)
S43 - Harvey Field Airport (18 nm E)
KBFI - Boeing Field/King County International Airport (19 nm SE)
0S9 - Jefferson County International Airport (19 nm NW)
KPWT - Bremerton National Airport (21 nm SW)
 
Loc | Ops | Rwys | IFR | FBO | Links
Com | Nav | Svcs | Stats | Notes
Area around WA61 (Thompson Airport)
 
Road maps at: MapQuest Bing Google
 
Aerial photo
No photo
 
Sectional chart

 
Airport distance calculator
Flying to Thompson Airport? Find the distance to fly.

From to WA61

Sunrise and sunset
Times for 30-Nov-2021
 Local
(UTC-8)
 Zulu
(UTC)
Morning civil twilight07:0315:03
Sunrise07:3815:38
Sunset16:2000:20
Evening civil twilight16:5500:55

Current date and time
Zulu (UTC)  30-Nov-2021 19:53:29
Local (UTC-8)  30-Nov-2021 11:53:29
 
METAR
KPAE 
12nm NE 
301853Z 17019G32KT 10SM -RA SCT014 BKN019 OVC070 11/08 A3018 RMK AO2 PK WND 19032/1845 SLP222 P0001 T01060083
KBFI 
17nm SE 
301853Z 19013G23KT 10SM BKN028 OVC080 12/09 A3022 RMK AO2 PK WND 20029/1820 SLP233 T01170094
K0S9 
19nm NW 
301935Z AUTO 13014G20KT 10SM CLR 11/09 A3009 RMK AO2
KPWT 
20nm SW 
301929Z AUTO 20014G21KT 5SM -RA BR BKN007 BKN012 OVC022 11/10 A3020 RMK AO2 P0000
KRNT 
22nm SE 
301932Z 18009G18KT 10SM SCT018 OVC031 12/08 A3023 RMK AO2 T01220083
KSEA 
23nm S 
301915Z 18012KT 7SM BKN009 OVC015 11/09 A3023 RMK AO2 RAE1855 P0000 T01060094
TAF
KPAE 
12nm NE 
301720Z 3018/0118 18014KT P6SM -RA SCT025 OVC070 TEMPO 3018/3022 BKN020 FM302200 17015G25KT 5SM -RA BR OVC012 FM010900 18014G22KT P6SM VCSH BKN014
KBFI 
17nm SE 
301720Z 3018/0118 21007KT P6SM -RA BKN027 OVC060 FM302100 17010G18KT P6SM -RA OVC025 FM010400 16009KT P6SM -RA OVC020 FM011000 16009KT P6SM VCSH BKN022
KPWT 
20nm SW 
301828Z 3018/0118 21010KT P6SM -RA BKN005 BKN012 OVC040 FM302100 19013G22KT 4SM -RA BR OVC015 FM010400 19013G20KT 5SM -RA BR OVC020 FM011000 19010KT 6SM BR VCSH BKN012
NOTAMs
Click for the latest NOTAMs
NOTAMs are issued by the DoD/FAA and will open in a separate window not controlled by AirNav.

 

 
 

Would you like to see your business listed on this page?

 If your business provides an interesting product or service to pilots, flight crews, aircraft, or users of the Thompson Airport, you should consider listing it here.  To start the listing process, click on the button below
 
Add a business
 

Other Pages about Thompson Airport

Update a link
 
Copyright © AirNav, LLC. All rights reserved. Privacy Policy  Contact